Time;durP1;ratioP1;P1;durP2;ratioP2;P2;SDS_P1;SDS_P2;PMS_P1;PMS_P2;Temp;Humidity;BMP_temperature;BMP_pressure;BME280_temperature;BME280_humidity;BME280_pressure;Samples;Min_cycle;Max_cycle;Signal;HPM_P1;HPM_P2
2020/12/14 00:01:06;;;;;;;1.30;1.25;;;1.80;99.90;;;;;;5087945;28;20226;-68
2020/12/14 00:03:35;;;;;;;2.05;1.90;;;1.80;99.90;;;;;;5089332;28;20179;-68
2020/12/14 00:06:00;;;;;;;0.90;0.90;;;1.70;99.90;;;;;;5089285;28;20176;-67
2020/12/14 00:08:27;;;;;;;0.95;0.95;;;1.70;99.90;;;;;;5089242;28;20167;-68
2020/12/14 00:10:53;;;;;;;2.50;1.33;;;1.70;99.90;;;;;;5089108;28;20206;-67
2020/12/14 00:13:19;;;;;;;0.63;0.63;;;1.70;99.90;;;;;;5089328;28;20157;-67
2020/12/14 00:15:45;;;;;;;0.38;0.38;;;1.60;99.90;;;;;;5089252;28;20160;-67
2020/12/14 00:18:11;;;;;;;1.55;1.35;;;1.60;99.90;;;;;;5089127;28;20156;-68
2020/12/14 00:20:37;;;;;;;2.30;2.20;;;1.70;99.90;;;;;;5087724;28;20226;-68
2020/12/14 00:23:04;;;;;;;0.95;0.95;;;1.60;99.90;;;;;;5087843;28;20176;-67
2020/12/14 00:25:30;;;;;;;0.70;0.70;;;1.60;99.90;;;;;;5089069;28;20164;-68
2020/12/14 00:27:56;;;;;;;0.85;0.85;;;1.60;99.90;;;;;;5089055;28;20163;-67
2020/12/14 00:30:22;;;;;;;0.32;0.32;;;1.70;99.90;;;;;;5088972;28;20208;-68
2020/12/14 00:32:47;;;;;;;1.58;1.42;;;1.60;99.90;;;;;;5088956;28;20171;-67
2020/12/14 00:35:13;;;;;;;0.10;0.10;;;1.60;99.90;;;;;;5089015;28;20168;-68
2020/12/14 00:37:39;;;;;;;0.68;0.68;;;1.60;99.90;;;;;;5089010;28;20182;-68
2020/12/14 00:40:05;;;;;;;0.68;0.68;;;1.50;99.90;;;;;;5088639;28;20204;-68
2020/12/14 00:42:30;;;;;;;0.80;0.80;;;1.60;99.90;;;;;;5088871;28;20227;-68
2020/12/14 00:44:56;;;;;;;1.33;1.27;;;1.60;99.90;;;;;;5088900;28;20164;-68
2020/12/14 00:47:22;;;;;;;4.80;3.15;;;1.60;99.90;;;;;;5102082;28;20194;-68
2020/12/14 00:49:48;;;;;;;0.43;0.43;;;1.70;99.90;;;;;;5107654;28;20211;-67
2020/12/14 00:52:13;;;;;;;0.50;0.50;;;1.70;99.90;;;;;;5107804;28;20168;-68
2020/12/14 00:54:39;;;;;;;0.30;0.30;;;1.60;99.90;;;;;;5109048;28;20167;-68
2020/12/14 00:57:05;;;;;;;0.43;0.43;;;1.60;99.90;;;;;;5109093;28;20215;-68
2020/12/14 00:59:31;;;;;;;3.67;3.45;;;1.60;99.90;;;;;;5112698;28;20255;-67
2020/12/14 01:01:57;;;;;;;1.13;1.13;;;1.70;99.90;;;;;;5106243;28;20213;-68
2020/12/14 01:04:23;;;;;;;0.98;0.85;;;1.70;99.90;;;;;;5112749;28;20164;-68
2020/12/14 01:06:53;;;;;;;0.20;0.20;;;1.70;99.90;;;;;;5111352;28;20171;-68
2020/12/14 01:09:20;;;;;;;0.10;0.10;;;1.70;99.90;;;;;;5112502;28;20191;-67
2020/12/14 01:11:46;;;;;;;2.65;2.55;;;1.70;99.90;;;;;;5112638;28;20177;-67
2020/12/14 01:14:12;;;;;;;1.70;1.60;;;1.60;99.90;;;;;;5112652;28;20159;-68
2020/12/14 01:16:38;;;;;;;0.20;0.20;;;1.70;99.90;;;;;;5111235;28;20167;-67
2020/12/14 01:19:04;;;;;;;0.10;0.10;;;1.60;99.90;;;;;;5111095;28;20176;-68
2020/12/14 01:21:29;;;;;;;1.58;1.48;;;1.60;99.90;;;;;;5112421;28;20166;-67
2020/12/14 01:23:55;;;;;;;0.30;0.30;;;1.60;99.90;;;;;;5111079;28;20168;-68
2020/12/14 01:26:21;;;;;;;1.60;1.58;;;1.50;99.90;;;;;;5112359;28;20163;-67
2020/12/14 01:28:47;;;;;;;0.43;0.43;;;1.50;99.90;;;;;;5112255;28;20160;-67
2020/12/14 01:31:13;;;;;;;2.53;2.33;;;1.50;99.90;;;;;;5112399;28;20202;-68
2020/12/14 01:33:39;;;;;;;0.40;0.40;;;1.50;99.90;;;;;;5112230;28;20159;-68
2020/12/14 01:36:05;;;;;;;0.20;0.20;;;1.50;99.90;;;;;;5112126;28;20156;-68
2020/12/14 01:38:31;;;;;;;0.57;0.57;;;1.50;99.90;;;;;;5110706;28;20266;-68
2020/12/14 01:40:56;;;;;;;0.20;0.20;;;1.40;99.90;;;;;;5111815;28;20227;-67
2020/12/14 01:43:23;;;;;;;2.15;2.05;;;1.50;99.90;;;;;;5111977;28;20159;-67
2020/12/14 01:45:50;;;;;;;1.17;1.17;;;1.50;99.90;;;;;;5110590;28;20178;-67
2020/12/14 01:48:17;;;;;;;1.55;1.45;;;1.50;99.90;;;;;;5111799;28;20163;-68
2020/12/14 01:50:43;;;;;;;0.45;0.45;;;1.50;99.90;;;;;;5111765;28;20199;-67
2020/12/14 01:53:11;;;;;;;1.85;1.75;;;1.50;99.90;;;;;;5111828;28;20179;-67
2020/12/14 01:55:41;;;;;;;2.65;2.42;;;1.50;99.90;;;;;;5111750;28;20155;-68
2020/12/14 01:58:08;;;;;;;0.90;0.90;;;1.40;99.90;;;;;;5111647;28;20177;-67
2020/12/14 02:00:34;;;;;;;0.38;0.38;;;1.40;99.90;;;;;;5111575;28;20195;-67
2020/12/14 02:03:00;;;;;;;0.47;0.47;;;1.40;99.90;;;;;;5111602;28;20219;-67
2020/12/14 02:05:26;;;;;;;0.32;0.32;;;1.30;99.90;;;;;;5111611;28;20208;-67
2020/12/14 02:07:51;;;;;;;0.90;0.40;;;1.30;99.90;;;;;;5111597;28;20210;-69
2020/12/14 02:10:17;;;;;;;0.40;0.40;;;1.30;99.90;;;;;;5110401;28;20736;-67
2020/12/14 02:12:43;;;;;;;0.28;0.28;;;1.30;99.90;;;;;;5111432;28;20177;-67
2020/12/14 02:15:09;;;;;;;0.35;0.35;;;1.40;99.90;;;;;;5111401;28;20648;-69
2020/12/14 02:17:35;;;;;;;1.27;1.17;;;1.40;99.90;;;;;;5111363;28;20182;-69
2020/12/14 02:20:01;;;;;;;1.98;1.88;;;1.40;99.90;;;;;;5111333;28;20707;-66
2020/12/14 02:22:27;;;;;;;0.50;0.50;;;1.40;99.90;;;;;;5111314;28;20167;-69
2020/12/14 02:24:58;;;;;;;1.38;1.35;;;1.40;99.90;;;;;;5109876;28;20179;-69
2020/12/14 02:27:26;;;;;;;1.75;1.08;;;1.40;99.90;;;;;;5109970;28;20183;-68
2020/12/14 02:29:52;;;;;;;0.50;0.50;;;1.40;99.90;;;;;;5109648;28;20233;-68
2020/12/14 02:32:20;;;;;;;0.35;0.35;;;1.50;99.90;;;;;;5109710;28;20190;-68
2020/12/14 02:34:47;;;;;;;0.73;0.73;;;1.50;99.90;;;;;;5109674;28;20167;-68
2020/12/14 02:37:26;;;;;;;1.20;1.17;;;1.50;99.90;;;;;;5110927;28;20158;-68
2020/12/14 02:39:53;;;;;;;0.22;0.22;;;1.60;99.90;;;;;;5110618;28;20191;-69
2020/12/14 02:42:21;;;;;;;0.50;0.50;;;1.50;99.90;;;;;;5110915;28;20155;-68
2020/12/14 02:44:47;;;;;;;0.55;0.55;;;1.50;99.90;;;;;;5109601;28;20198;-68
2020/12/14 02:47:15;;;;;;;0.30;0.30;;;1.50;99.90;;;;;;5109265;28;20183;-69
2020/12/14 02:49:41;;;;;;;1.90;1.73;;;1.50;99.90;;;;;;5109351;28;20207;-68
2020/12/14 02:52:10;;;;;;;1.63;1.52;;;1.50;99.90;;;;;;5100684;28;20183;-69
2020/12/14 02:54:38;;;;;;;0.95;0.95;;;1.40;99.90;;;;;;5088481;28;20171;-69
2020/12/14 02:57:04;;;;;;;0.77;0.68;;;1.40;99.90;;;;;;5101619;28;20624;-68
2020/12/14 02:59:31;;;;;;;0.82;0.77;;;1.50;99.90;;;;;;5110198;28;20276;-69
2020/12/14 03:01:57;;;;;;;0.32;0.32;;;1.40;99.90;;;;;;5108732;28;20205;-68
2020/12/14 03:04:23;;;;;;;1.40;1.40;;;1.40;99.90;;;;;;5110054;28;20169;-68
2020/12/14 03:06:49;;;;;;;0.40;0.40;;;1.40;99.90;;;;;;5108634;28;20191;-69
2020/12/14 03:09:20;;;;;;;1.17;1.10;;;1.40;99.90;;;;;;5096393;28;20328;-68
2020/12/14 03:11:46;;;;;;;0.40;0.40;;;1.40;99.90;;;;;;5089560;28;20167;-69
2020/12/14 03:14:12;;;;;;;0.30;0.30;;;1.40;99.90;;;;;;5089358;28;20183;-69
2020/12/14 03:16:46;;;;;;;1.23;1.20;;;1.40;99.90;;;;;;5089584;28;20161;-69
2020/12/14 03:19:12;;;;;;;0.20;0.20;;;1.40;99.90;;;;;;5089396;28;20163;-66
2020/12/14 03:21:38;;;;;;;0.30;0.30;;;1.40;99.90;;;;;;5089406;28;20163;-69
2020/12/14 03:24:05;;;;;;;0.22;0.22;;;1.40;99.90;;;;;;5089261;28;20184;-66
2020/12/14 03:26:31;;;;;;;1.02;1.02;;;1.40;99.90;;;;;;5087986;28;20171;-67
2020/12/14 03:28:57;;;;;;;0.22;0.22;;;1.40;99.90;;;;;;5087778;28;20198;-67
2020/12/14 03:31:23;;;;;;;0.50;0.50;;;1.40;99.90;;;;;;5087725;28;20196;-67
2020/12/14 03:33:54;;;;;;;1.20;1.10;;;1.30;99.90;;;;;;5087311;28;20190;-67
2020/12/14 03:36:21;;;;;;;1.02;1.02;;;1.30;99.90;;;;;;5087772;28;20167;-66
2020/12/14 03:38:51;;;;;;;1.33;1.23;;;1.30;99.90;;;;;;5088893;28;20160;-69
2020/12/14 03:41:18;;;;;;;0.52;0.52;;;1.30;99.90;;;;;;5088667;28;20314;-69
2020/12/14 03:43:44;;;;;;;2.50;1.65;;;1.30;99.90;;;;;;5087613;28;20259;-69
2020/12/14 03:46:18;;;;;;;0.45;0.45;;;1.30;99.90;;;;;;5088717;28;20176;-69
2020/12/14 03:48:44;;;;;;;0.35;0.35;;;1.30;99.90;;;;;;5088677;28;20726;-69
2020/12/14 03:51:11;;;;;;;0.30;0.30;;;1.30;99.90;;;;;;5087592;28;20224;-69
2020/12/14 03:53:37;;;;;;;0.13;0.13;;;1.30;99.90;;;;;;5088779;28;20168;-69
2020/12/14 03:56:03;;;;;;;0.60;0.60;;;1.30;99.90;;;;;;5088664;28;20168;-68
2020/12/14 03:58:29;;;;;;;0.68;0.68;;;1.30;99.90;;;;;;5088619;28;20160;-69
2020/12/14 04:00:55;;;;;;;0.10;0.10;;;1.20;99.90;;;;;;5088495;28;20222;-69
2020/12/14 04:03:23;;;;;;;0.22;0.22;;;1.20;99.90;;;;;;5088765;28;20163;-68
2020/12/14 04:05:49;;;;;;;0.10;0.10;;;1.30;99.90;;;;;;5088823;28;20148;-69
2020/12/14 04:08:16;;;;;;;0.95;0.95;;;1.30;99.90;;;;;;5088763;28;20163;-69
2020/12/14 04:10:43;;;;;;;0.10;0.10;;;1.30;99.90;;;;;;5088459;28;20215;-69
2020/12/14 04:13:09;;;;;;;0.22;0.22;;;1.30;99.90;;;;;;5088707;28;20164;-69
2020/12/14 04:15:35;;;;;;;0.65;0.65;;;1.20;99.90;;;;;;5088524;28;20187;-69
2020/12/14 04:18:01;;;;;;;0.35;0.35;;;1.20;99.90;;;;;;5088376;28;20159;-69
2020/12/14 04:20:27;;;;;;;1.33;1.10;;;1.20;99.90;;;;;;5088460;28;20645;-69
2020/12/14 04:22:53;;;;;;;0.57;0.57;;;1.20;99.90;;;;;;5088499;28;20677;-69
2020/12/14 04:25:19;;;;;;;0.25;0.25;;;1.20;99.90;;;;;;5087428;28;20625;-68
2020/12/14 04:27:45;;;;;;;0.68;0.68;;;1.30;99.90;;;;;;5087341;28;20263;-68
2020/12/14 04:30:12;;;;;;;0.15;0.15;;;1.20;99.90;;;;;;5086734;28;20294;-69
2020/12/14 04:32:38;;;;;;;0.57;0.57;;;1.20;99.90;;;;;;5088192;28;20231;-67
2020/12/14 04:35:05;;;;;;;0.20;0.20;;;1.20;99.90;;;;;;5091176;28;20200;-67
2020/12/14 04:37:31;;;;;;;0.50;0.50;;;1.20;99.90;;;;;;5092422;28;20157;-66
2020/12/14 04:39:56;;;;;;;0.30;0.30;;;1.20;99.90;;;;;;5090485;28;20195;-68
2020/12/14 04:42:23;;;;;;;0.65;0.65;;;1.20;99.90;;;;;;5092426;28;20171;-69
2020/12/14 04:44:53;;;;;;;1.88;1.75;;;1.20;99.90;;;;;;5090537;28;20180;-69
2020/12/14 04:47:20;;;;;;;0.63;0.63;;;1.30;99.90;;;;;;5092213;28;20202;-69
2020/12/14 04:49:48;;;;;;;0.17;0.17;;;1.20;99.90;;;;;;5091131;28;20219;-69
2020/12/14 04:52:17;;;;;;;0.63;0.57;;;1.30;99.90;;;;;;5090604;28;20171;-69
2020/12/14 04:54:50;;;;;;;0.65;0.65;;;1.20;99.90;;;;;;5091459;28;20178;-69
2020/12/14 04:57:20;;;;;;;0.85;0.85;;;1.20;99.90;;;;;;5090510;28;20175;-67
2020/12/14 04:59:46;;;;;;;0.50;0.50;;;1.20;99.90;;;;;;5089911;28;20255;-69
2020/12/14 05:02:12;;;;;;;0.85;0.85;;;1.20;99.90;;;;;;5090987;28;20170;-68
2020/12/14 05:04:39;;;;;;;0.77;0.77;;;1.20;99.90;;;;;;5089897;28;20164;-69
2020/12/14 05:07:06;;;;;;;1.10;1.10;;;1.20;99.90;;;;;;5091678;28;20191;-69
2020/12/14 05:09:33;;;;;;;1.25;1.17;;;1.20;99.90;;;;;;5091330;28;20231;-69
2020/12/14 05:11:59;;;;;;;0.20;0.20;;;1.20;99.90;;;;;;5090117;28;20156;-68
2020/12/14 05:14:28;;;;;;;0.80;0.80;;;1.20;99.90;;;;;;5091608;28;20170;-68
2020/12/14 05:16:54;;;;;;;1.25;1.15;;;1.20;99.90;;;;;;5091321;28;20184;-68
2020/12/14 05:19:27;;;;;;;0.75;0.75;;;1.20;99.90;;;;;;5089828;28;20186;-68
2020/12/14 05:22:01;;;;;;;1.10;0.73;;;1.20;99.90;;;;;;5091147;28;20160;-68
2020/12/14 05:24:28;;;;;;;0.63;0.63;;;1.30;99.90;;;;;;5089759;28;20535;-68
2020/12/14 05:26:55;;;;;;;1.02;0.95;;;1.30;99.90;;;;;;5088952;28;20176;-68
2020/12/14 05:29:27;;;;;;;0.22;0.22;;;1.20;99.90;;;;;;5089152;28;20279;-68
2020/12/14 05:32:10;;;;;;;0.30;0.30;;;1.30;99.90;;;;;;5089944;28;20171;-68
2020/12/14 05:34:37;;;;;;;0.15;0.15;;;1.30;99.90;;;;;;5090672;28;20160;-68
2020/12/14 05:37:09;;;;;;;0.75;0.75;;;1.30;99.90;;;;;;5089690;28;20252;-68
2020/12/14 05:39:39;;;;;;;0.20;0.20;;;1.30;99.90;;;;;;5090308;28;20203;-68
2020/12/14 05:42:14;;;;;;;0.17;0.17;;;1.40;99.90;;;;;;5090754;28;20303;-68
2020/12/14 05:44:41;;;;;;;1.10;1.10;;;1.40;99.90;;;;;;5089500;28;20511;-68
2020/12/14 05:47:30;;;;;;;0.28;0.28;;;1.30;99.90;;;;;;5090606;28;20256;-68
2020/12/14 05:49:57;;;;;;;0.20;0.20;;;1.40;99.90;;;;;;5090126;28;20204;-68
2020/12/14 05:52:30;;;;;;;0.82;0.82;;;1.40;99.90;;;;;;5089482;28;20235;-68
2020/12/14 05:54:57;;;;;;;2.03;1.42;;;1.40;99.90;;;;;;5090608;28;20183;-68
2020/12/14 05:57:36;;;;;;;0.20;0.20;;;1.40;99.90;;;;;;5089234;28;20188;-68
2020/12/14 06:00:07;;;;;;;2.72;2.55;;;1.40;99.90;;;;;;5090490;28;20184;-68
2020/12/14 06:02:34;;;;;;;2.08;1.88;;;1.40;99.90;;;;;;5090331;28;20187;-68
2020/12/14 06:05:03;;;;;;;0.60;0.60;;;1.50;99.90;;;;;;5090036;28;20262;-68
2020/12/14 06:07:31;;;;;;;1.10;1.10;;;1.40;99.90;;;;;;5088740;28;20168;-68
2020/12/14 06:10:09;;;;;;;0.57;0.57;;;1.30;99.90;;;;;;5090052;28;20204;-68
2020/12/14 06:12:41;;;;;;;0.63;0.63;;;1.30;99.90;;;;;;5090189;28;20156;-68
2020/12/14 06:15:09;;;;;;;0.68;0.68;;;1.40;99.90;;;;;;5088425;28;20193;-68
2020/12/14 06:17:37;;;;;;;0.60;0.60;;;1.40;99.90;;;;;;5089982;28;20160;-68
2020/12/14 06:20:14;;;;;;;0.65;0.65;;;1.40;99.90;;;;;;5089180;28;20192;-68
2020/12/14 06:22:47;;;;;;;0.57;0.57;;;1.40;99.90;;;;;;5089982;28;20160;-69
2020/12/14 06:25:16;;;;;;;0.30;0.30;;;1.30;99.90;;;;;;5087979;28;20172;-68
2020/12/14 06:27:42;;;;;;;1.17;1.17;;;1.40;99.90;;;;;;5089704;28;20164;-68
2020/12/14 06:30:26;;;;;;;1.88;1.75;;;1.40;99.90;;;;;;5089630;28;20199;-68
2020/12/14 06:33:02;;;;;;;2.45;2.28;;;1.30;99.90;;;;;;5089299;28;20160;-68
2020/12/14 06:35:47;;;;;;;0.63;0.63;;;1.30;99.90;;;;;;5094313;28;20185;-69
2020/12/14 06:38:37;;;;;;;0.30;0.30;;;1.30;99.90;;;;;;5108942;28;20163;-68
2020/12/14 06:41:12;;;;;;;0.30;0.30;;;1.30;99.90;;;;;;5089690;28;20223;-68
2020/12/14 06:43:38;;;;;;;0.30;0.30;;;1.40;99.90;;;;;;5103669;28;20597;-68
2020/12/14 06:46:05;;;;;;;0.20;0.20;;;1.50;99.90;;;;;;5094732;28;20207;-68
2020/12/14 06:48:40;;;;;;;0.40;0.40;;;1.50;99.90;;;;;;5089025;28;20160;-68
2020/12/14 06:51:09;;;;;;;0.73;0.73;;;1.40;99.90;;;;;;5089382;28;20250;-68
2020/12/14 06:53:50;;;;;;;0.43;0.43;;;1.40;99.90;;;;;;5089249;28;20156;-68
2020/12/14 06:56:28;;;;;;;1.45;1.45;;;1.40;99.90;;;;;;5088807;28;20239;-67
2020/12/14 06:58:55;;;;;;;0.65;0.65;;;1.50;99.90;;;;;;5088974;28;20175;-68
2020/12/14 07:01:36;;;;;;;0.40;0.40;;;1.50;99.90;;;;;;5088510;28;20192;-68
2020/12/14 07:04:15;;;;;;;0.75;0.75;;;1.50;99.90;;;;;;5089144;28;20175;-68
2020/12/14 07:06:41;;;;;;;1.35;0.85;;;1.60;99.90;;;;;;5088772;28;20248;-67
2020/12/14 07:09:29;;;;;;;1.90;1.50;;;1.70;99.90;;;;;;5088733;28;20184;-68
2020/12/14 07:12:15;;;;;;;0.17;0.17;;;1.70;99.90;;;;;;5089070;28;20172;-68
2020/12/14 07:14:56;;;;;;;3.13;2.28;;;1.70;99.90;;;;;;5086262;28;20498;-68
2020/12/14 07:17:29;;;;;;;1.20;1.20;;;1.70;99.90;;;;;;5088659;28;20159;-68
2020/12/14 07:19:59;;;;;;;0.20;0.20;;;1.70;99.90;;;;;;5086456;28;20210;-67
2020/12/14 07:22:34;;;;;;;0.80;0.50;;;1.70;99.90;;;;;;5088924;28;20247;-67
2020/12/14 07:25:03;;;;;;;0.40;0.40;;;1.70;99.90;;;;;;5088965;28;20247;-67
2020/12/14 07:27:30;;;;;;;1.08;1.02;;;1.80;99.90;;;;;;5088397;28;20235;-67
2020/12/14 07:30:08;;;;;;;0.40;0.40;;;1.70;99.90;;;;;;5088669;28;20183;-67
2020/12/14 07:32:35;;;;;;;0.90;0.90;;;1.60;99.90;;;;;;5088406;28;20159;-67
2020/12/14 07:35:01;;;;;;;0.40;0.40;;;1.60;99.90;;;;;;5087379;28;20170;-67
2020/12/14 07:37:27;;;;;;;0.10;0.10;;;1.70;99.90;;;;;;5087268;28;20519;-67
2020/12/14 07:39:53;;;;;;;0.20;0.20;;;1.60;99.90;;;;;;5088285;28;20428;-68
2020/12/14 07:42:30;;;;;;;0.55;0.55;;;1.60;99.90;;;;;;5087037;28;20179;-67
2020/12/14 07:45:09;;;;;;;1.05;1.05;;;1.70;99.90;;;;;;5088049;28;20233;-68
2020/12/14 07:47:36;;;;;;;0.28;0.28;;;1.80;99.90;;;;;;5088867;28;20237;-68
2020/12/14 07:50:09;;;;;;;0.45;0.45;;;1.80;99.90;;;;;;5087067;28;20252;-68
2020/12/14 07:52:36;;;;;;;0.80;0.80;;;1.90;99.90;;;;;;5088342;28;20184;-68
2020/12/14 07:55:04;;;;;;;0.63;0.55;;;1.90;99.90;;;;;;5088706;28;20670;-67
2020/12/14 07:57:32;;;;;;;0.80;0.80;;;1.90;99.90;;;;;;5088576;28;20182;-68
2020/12/14 07:59:59;;;;;;;0.47;0.47;;;1.90;99.90;;;;;;5086880;28;20171;-68
2020/12/14 08:02:28;;;;;;;1.30;1.30;;;2.00;99.90;;;;;;5088348;28;20183;-68
2020/12/14 08:05:02;;;;;;;3.65;3.08;;;1.90;99.90;;;;;;5087645;28;20168;-69
2020/12/14 08:07:35;;;;;;;1.10;1.00;;;1.90;99.90;;;;;;5087580;28;20164;-68
2020/12/14 08:10:02;;;;;;;0.50;0.50;;;1.90;99.90;;;;;;5087779;28;20176;-66
2020/12/14 08:12:29;;;;;;;0.20;0.20;;;2.00;99.90;;;;;;5088265;28;20185;-68
2020/12/14 08:14:57;;;;;;;4.78;2.40;;;2.00;99.90;;;;;;5087116;28;20304;-67
2020/12/14 08:17:23;;;;;;;0.10;0.10;;;2.10;99.90;;;;;;5088115;28;20301;-68
2020/12/14 08:19:49;;;;;;;1.13;1.08;;;2.00;99.90;;;;;;5088489;28;20160;-67
2020/12/14 08:22:14;;;;;;;1.48;1.38;;;2.10;99.90;;;;;;5086835;28;20182;-68
2020/12/14 08:24:44;;;;;;;0.20;0.20;;;2.10;99.90;;;;;;5086406;28;20201;-67
2020/12/14 08:27:12;;;;;;;0.10;0.10;;;2.20;99.90;;;;;;5088352;28;20171;-67
2020/12/14 08:29:55;;;;;;;0.80;0.80;;;2.30;99.90;;;;;;5087897;28;20184;-67
2020/12/14 08:32:24;;;;;;;0.20;0.20;;;2.30;99.90;;;;;;5087926;28;20156;-68
2020/12/14 08:34:50;;;;;;;0.55;0.55;;;2.40;99.90;;;;;;5088134;28;20531;-67
2020/12/14 08:37:19;;;;;;;1.58;1.48;;;2.40;99.90;;;;;;5086439;28;20183;-67
2020/12/14 08:39:59;;;;;;;0.30;0.30;;;2.50;99.90;;;;;;5088033;28;20526;-69
2020/12/14 08:42:29;;;;;;;2.50;2.40;;;2.50;99.90;;;;;;5087813;28;20168;-68
2020/12/14 08:45:14;;;;;;;0.38;0.38;;;2.60;99.90;;;;;;5087905;28;20176;-69
2020/12/14 08:47:42;;;;;;;1.13;1.10;;;2.50;99.90;;;;;;5088183;28;20160;-69
2020/12/14 08:50:13;;;;;;;0.40;0.40;;;2.50;99.90;;;;;;5087837;28;20184;-69
2020/12/14 08:52:39;;;;;;;0.88;0.88;;;2.40;99.90;;;;;;5087501;28;20194;-68
2020/12/14 08:55:06;;;;;;;1.85;1.75;;;2.50;99.90;;;;;;5088012;28;20212;-69
2020/12/14 08:57:32;;;;;;;1.38;1.38;;;2.60;99.90;;;;;;5087354;28;20159;-68
2020/12/14 09:00:07;;;;;;;2.40;1.70;;;2.60;99.90;;;;;;5087680;28;20184;-68
2020/12/14 09:02:33;;;;;;;0.20;0.20;;;2.70;99.90;;;;;;5100520;28;20296;-68
2020/12/14 09:04:59;;;;;;;1.33;1.05;;;2.70;99.90;;;;;;5098920;28;20258;-68
2020/12/14 09:07:27;;;;;;;0.77;0.77;;;2.80;99.90;;;;;;5094032;28;20190;-68
2020/12/14 09:09:53;;;;;;;0.35;0.35;;;2.80;99.90;;;;;;5086519;28;20222;-68
2020/12/14 09:12:20;;;;;;;0.75;0.75;;;2.80;99.90;;;;;;5106504;28;20164;-67
2020/12/14 09:14:46;;;;;;;1.48;1.38;;;2.80;99.90;;;;;;5108058;28;20194;-67
2020/12/14 09:17:18;;;;;;;0.32;0.32;;;2.90;99.90;;;;;;5106766;28;20239;-67
2020/12/14 09:19:52;;;;;;;2.60;1.58;;;2.90;99.90;;;;;;5100612;28;20172;-67
2020/12/14 09:22:27;;;;;;;1.13;1.08;;;2.70;99.90;;;;;;5091019;28;20156;-67
2020/12/14 09:24:53;;;;;;;1.00;1.00;;;2.60;99.90;;;;;;5091062;28;20158;-66
2020/12/14 09:27:20;;;;;;;1.02;1.02;;;2.60;99.90;;;;;;5091179;28;20148;-66
2020/12/14 09:29:46;;;;;;;0.65;0.65;;;2.70;99.90;;;;;;5091018;28;20184;-66
2020/12/14 09:32:15;;;;;;;0.30;0.30;;;2.60;99.90;;;;;;5089560;28;20168;-67
2020/12/14 09:34:41;;;;;;;1.02;0.82;;;2.60;99.90;;;;;;5090787;28;20191;-67
2020/12/14 09:37:08;;;;;;;0.77;0.77;;;2.70;99.90;;;;;;5101563;28;20160;-68
2020/12/14 09:39:34;;;;;;;0.57;0.57;;;2.80;99.90;;;;;;5111192;28;20232;-67
2020/12/14 09:42:01;;;;;;;1.05;1.05;;;2.80;99.90;;;;;;5109743;28;20226;-68
2020/12/14 09:44:29;;;;;;;0.38;0.38;;;2.80;99.90;;;;;;5110151;28;20195;-68
2020/12/14 09:46:57;;;;;;;1.23;1.13;;;3.00;99.90;;;;;;5090598;28;20160;-68
2020/12/14 09:49:23;;;;;;;0.80;0.80;;;3.10;99.90;;;;;;5089423;28;20200;-68
2020/12/14 09:51:49;;;;;;;0.40;0.40;;;3.00;99.90;;;;;;5090251;28;20186;-69
2020/12/14 09:54:16;;;;;;;0.52;0.52;;;3.00;99.90;;;;;;5090462;28;20199;-67
2020/12/14 09:56:43;;;;;;;1.40;1.33;;;3.20;99.90;;;;;;5090745;28;20164;-67
2020/12/14 09:59:09;;;;;;;0.68;0.68;;;3.20;99.90;;;;;;5089191;28;20180;-67
2020/12/14 10:01:35;;;;;;;1.02;0.68;;;3.20;99.90;;;;;;5089084;28;20172;-67
2020/12/14 10:04:01;;;;;;;1.00;1.00;;;3.20;99.90;;;;;;5107734;28;20259;-67
2020/12/14 10:06:27;;;;;;;0.50;0.50;;;3.20;99.90;;;;;;5110585;28;20620;-67
2020/12/14 10:08:53;;;;;;;2.05;1.92;;;3.20;99.90;;;;;;5109292;28;20175;-67
2020/12/14 10:11:26;;;;;;;0.90;0.90;;;3.30;99.90;;;;;;5098998;28;20156;-66
2020/12/14 10:13:53;;;;;;;0.73;0.73;;;3.20;99.90;;;;;;5088737;28;20200;-66
2020/12/14 10:16:19;;;;;;;3.78;1.88;;;3.10;99.90;;;;;;5090211;28;20199;-67
2020/12/14 10:18:45;;;;;;;0.20;0.20;;;3.10;99.90;;;;;;5090364;28;20167;-68
2020/12/14 10:21:12;;;;;;;0.20;0.20;;;3.10;99.90;;;;;;5090198;28;20176;-67
2020/12/14 10:23:37;;;;;;;0.85;0.85;;;3.10;99.90;;;;;;5103824;28;20205;-67
2020/12/14 10:26:05;;;;;;;0.17;0.17;;;2.90;99.90;;;;;;5110929;28;20195;-67
2020/12/14 10:28:32;;;;;;;1.33;1.27;;;3.00;99.90;;;;;;5110748;28;20215;-67
2020/12/14 10:30:58;;;;;;;2.00;0.90;;;3.10;99.90;;;;;;5108652;28;20199;-68
2020/12/14 10:33:26;;;;;;;0.40;0.40;;;3.10;99.90;;;;;;5110392;28;20186;-67
2020/12/14 10:35:52;;;;;;;0.43;0.43;;;3.20;99.90;;;;;;5109548;28;20156;-67
2020/12/14 10:38:18;;;;;;;0.57;0.57;;;3.10;99.90;;;;;;5093805;28;20280;-67
2020/12/14 10:40:44;;;;;;;0.13;0.13;;;3.30;99.90;;;;;;5110501;28;20223;-67
2020/12/14 10:43:09;;;;;;;0.20;0.20;;;3.20;99.90;;;;;;5104329;28;20212;-67
2020/12/14 10:45:36;;;;;;;0.38;0.38;;;3.10;99.90;;;;;;5101261;28;20174;-67
2020/12/14 10:48:02;;;;;;;0.60;0.60;;;3.00;99.90;;;;;;5110108;28;20166;-67
2020/12/14 10:50:28;;;;;;;1.40;1.30;;;3.00;99.90;;;;;;5089638;28;20195;-67
2020/12/14 10:52:55;;;;;;;1.15;1.13;;;2.90;99.90;;;;;;5087903;28;20518;-67
2020/12/14 10:55:22;;;;;;;0.85;0.85;;;2.90;99.90;;;;;;5088864;28;20191;-67
2020/12/14 10:57:49;;;;;;;0.57;0.57;;;2.90;99.90;;;;;;5088864;28;20156;-67
2020/12/14 11:00:17;;;;;;;0.55;0.55;;;2.90;99.90;;;;;;5086935;28;20168;-67
2020/12/14 11:02:43;;;;;;;0.47;0.47;;;2.90;99.90;;;;;;5108080;28;20262;-67
2020/12/14 11:05:10;;;;;;;1.27;1.27;;;2.90;99.90;;;;;;5108785;28;20170;-68
2020/12/14 11:07:36;;;;;;;1.20;1.20;;;2.90;99.90;;;;;;5107100;28;20254;-67
2020/12/14 11:10:07;;;;;;;2.25;1.85;;;2.90;99.90;;;;;;5107774;28;20187;-67
2020/12/14 11:12:33;;;;;;;1.15;1.15;;;2.90;99.90;;;;;;5088218;28;20152;-67
2020/12/14 11:14:59;;;;;;;2.30;2.20;;;3.00;99.90;;;;;;5088536;28;20191;-67
2020/12/14 11:17:25;;;;;;;1.45;1.45;;;3.10;99.90;;;;;;5088504;28;20172;-67
2020/12/14 11:19:51;;;;;;;1.75;1.42;;;3.10;99.90;;;;;;5088628;28;20168;-66
2020/12/14 11:22:17;;;;;;;0.30;0.30;;;3.20;99.90;;;;;;5087764;28;20168;-68
2020/12/14 11:24:43;;;;;;;1.10;0.98;;;3.20;99.90;;;;;;5087452;28;20218;-67
2020/12/14 11:27:09;;;;;;;0.50;0.50;;;3.30;99.90;;;;;;5088565;28;20163;-67
2020/12/14 11:29:35;;;;;;;0.35;0.35;;;3.50;99.90;;;;;;5088423;28;20192;-67
2020/12/14 11:32:01;;;;;;;0.63;0.63;;;3.60;99.90;;;;;;5088127;28;20160;-68
2020/12/14 11:34:26;;;;;;;2.25;2.15;;;3.60;99.90;;;;;;5086734;28;20195;-67
2020/12/14 11:36:52;;;;;;;0.55;0.55;;;3.60;99.90;;;;;;5093637;28;20179;-68
2020/12/14 11:39:18;;;;;;;2.80;2.60;;;3.70;99.90;;;;;;5087869;28;20172;-67
2020/12/14 11:41:48;;;;;;;1.00;1.00;;;3.80;99.90;;;;;;5088292;28;20303;-67
2020/12/14 11:44:15;;;;;;;1.08;1.08;;;3.80;99.90;;;;;;5103433;28;20198;-68
2020/12/14 11:46:48;;;;;;;1.85;1.20;;;3.80;99.90;;;;;;5106211;28;20185;-67
2020/12/14 11:49:16;;;;;;;0.85;0.85;;;3.70;99.90;;;;;;5108776;28;20191;-67
2020/12/14 11:51:42;;;;;;;1.92;1.73;;;3.70;99.90;;;;;;5108562;28;20151;-68
2020/12/14 11:54:07;;;;;;;0.65;0.65;;;3.70;99.90;;;;;;5108480;28;20194;-66
2020/12/14 11:56:33;;;;;;;0.20;0.20;;;3.70;99.90;;;;;;5108410;28;20183;-67
2020/12/14 11:58:59;;;;;;;0.52;0.52;;;3.70;99.90;;;;;;5108340;28;20159;-68
2020/12/14 12:01:25;;;;;;;0.63;0.63;;;3.60;99.90;;;;;;5093500;28;20252;-69
2020/12/14 12:03:51;;;;;;;1.15;1.15;;;3.50;99.90;;;;;;5103596;28;20262;-68
2020/12/14 12:06:17;;;;;;;1.50;1.10;;;3.40;99.90;;;;;;5093785;28;20227;-68
2020/12/14 12:08:45;;;;;;;0.93;0.93;;;3.40;99.90;;;;;;5108033;28;20215;-67
2020/12/14 12:11:12;;;;;;;0.20;0.20;;;3.40;99.90;;;;;;5104211;28;20217;-66
2020/12/14 12:13:39;;;;;;;0.40;0.40;;;3.50;99.90;;;;;;5107650;28;20274;-68
2020/12/14 12:16:06;;;;;;;2.05;1.35;;;3.50;99.90;;;;;;5107130;28;20179;-67
2020/12/14 12:18:32;;;;;;;0.45;0.45;;;3.50;99.90;;;;;;5107913;28;20156;-68
2020/12/14 12:20:58;;;;;;;0.55;0.55;;;3.50;99.90;;;;;;5107369;28;20179;-67
2020/12/14 12:23:24;;;;;;;1.05;1.05;;;3.50;99.90;;;;;;5106158;28;20202;-68
2020/12/14 12:25:50;;;;;;;1.67;1.67;;;3.40;99.90;;;;;;5105849;28;20171;-69
2020/12/14 12:28:16;;;;;;;2.10;1.95;;;3.40;99.90;;;;;;5106890;28;20185;-69
2020/12/14 12:30:42;;;;;;;1.10;1.10;;;3.50;99.90;;;;;;5106773;28;20205;-67
2020/12/14 12:33:08;;;;;;;1.65;1.40;;;3.50;99.90;;;;;;5108114;28;20187;-66
2020/12/14 12:35:34;;;;;;;1.00;1.00;;;3.40;99.90;;;;;;5104636;28;20187;-67
2020/12/14 12:37:59;;;;;;;2.65;2.55;;;3.40;99.90;;;;;;5106507;28;20271;-67
2020/12/14 12:40:25;;;;;;;0.32;0.32;;;3.30;99.90;;;;;;5106793;28;20223;-67
2020/12/14 12:42:51;;;;;;;1.33;1.20;;;3.30;99.90;;;;;;5108155;28;20195;-67
2020/12/14 12:45:17;;;;;;;1.98;1.83;;;3.10;99.90;;;;;;5107129;28;20210;-67
2020/12/14 12:47:43;;;;;;;1.45;1.45;;;3.00;99.90;;;;;;5107948;28;20198;-67
2020/12/14 12:50:09;;;;;;;0.25;0.25;;;3.00;99.90;;;;;;5107583;28;20194;-67
2020/12/14 12:52:35;;;;;;;1.67;1.58;;;2.80;99.90;;;;;;5108195;28;20164;-67
2020/12/14 12:55:01;;;;;;;0.80;0.80;;;2.80;99.90;;;;;;5111521;28;20224;-67
2020/12/14 12:57:28;;;;;;;0.43;0.43;;;2.90;99.90;;;;;;5112168;28;20159;-67
2020/12/14 12:59:54;;;;;;;1.10;1.10;;;3.00;99.90;;;;;;5112213;28;20245;-68
2020/12/14 13:02:20;;;;;;;1.77;1.77;;;2.90;99.90;;;;;;5112326;28;20252;-67